Cedar Falls, North Carolina
Current Conditions -  °F | °C
As of 2:15 AM on Wednesday 22 Oct 2014 (Local Time) from KHBI Reporting Station
Clear Clear  
Wind Chill: 10°   Ceiling: Unl
Heat Index: 10°   Visibility: 10mi
Dew Point:   Wind: 0mph
Humidity: 68%   Direction: NA
Pressure: 30"   Gusts: NA
Location:  35.75°N, 79.73°W
Report Text: KHBI 220615Z AUTO 00000KT 10SM CLR 10/04 A3000 RMK AO2 T00970040
Loading
Personal Weather Stations






























Interactive Weather Map
Tropical Storm Tracking
New forecast layout! Learn more

10-Day Weather Forecast

Advertisements
Track Severe Weather on mobile